Time;durP1;ratioP1;P1;durP2;ratioP2;P2;SDS_P1;SDS_P2;PMS_P1;PMS_P2;Temp;Humidity;BMP_temperature;BMP_pressure;BME280_temperature;BME280_humidity;BME280_pressure;Samples;Min_cycle;Max_cycle;Signal;HPM_P1;HPM_P2
2022/06/20 00:03:03;;;;;;;15.65;6.10;;;;;;;;;;5085613;28;20056;-58
2022/06/20 00:05:44;;;;;;;11.25;6.38;;;;;;;;;;5094366;28;20039;-58
2022/06/20 00:08:30;;;;;;;9.43;5.47;;;;;;;;;;5094513;28;20339;-58
2022/06/20 00:11:18;;;;;;;8.32;5.57;;;;;;;;;;5094336;28;20032;-58
2022/06/20 00:14:06;;;;;;;11.73;5.65;;;;;;;;;;5092932;28;20054;-58
2022/06/20 00:17:08;;;;;;;9.77;5.68;;;;;;;;;;5094572;28;20024;-58
2022/06/20 00:19:43;;;;;;;6.32;5.30;;;;;;;;;;5086610;28;20044;-58
2022/06/20 00:22:30;;;;;;;6.40;5.70;;;;;;;;;;5094401;28;20066;-58
2022/06/20 00:25:21;;;;;;;6.82;5.72;;;;;;;;;;5093015;28;20017;-58
2022/06/20 00:31:00;;;;;;;10.05;6.38;;;;;;;;;;5093407;28;20156;-58
2022/06/20 00:37:14;;;;;;;6.18;5.55;;;;;;;;;;5059483;28;20031;-58
2022/06/20 00:39:27;;;;;;;15.80;6.53;;;;;;;;;;5084585;28;20036;-58
2022/06/20 00:42:04;;;;;;;12.88;6.20;;;;;;;;;;5094232;28;20020;-58
2022/06/20 00:44:56;;;;;;;5.85;5.20;;;;;;;;;;5076470;28;20016;-58
2022/06/20 00:47:36;;;;;;;7.82;6.38;;;;;;;;;;5094167;28;20101;-58
2022/06/20 00:50:21;;;;;;;14.20;6.95;;;;;;;;;;5075781;28;20048;-58
2022/06/20 00:56:29;;;;;;;;;;;;;;;;;;;;;
2022/06/20 00:59:02;;;;;;;11.48;7.18;;;;;;;;;;5097208;28;20036;-58
2022/06/20 01:01:36;;;;;;;9.23;5.47;;;;;;;;;;5097384;28;20107;-59
2022/06/20 01:04:27;;;;;;;6.07;5.05;;;;;;;;;;5097326;28;20476;-58
2022/06/20 01:07:31;;;;;;;8.82;6.18;;;;;;;;;;5075879;28;20036;-59
2022/06/20 01:09:58;;;;;;;9.43;6.00;;;;;;;;;;5054756;28;20033;-59
2022/06/20 01:12:31;;;;;;;14.32;7.72;;;;;;;;;;5054341;28;20040;-59
2022/06/20 01:15:16;;;;;;;14.80;7.45;;;;;;;;;;5052782;28;20033;-59
2022/06/20 01:18:14;;;;;;;11.60;6.57;;;;;;;;;;5054735;28;20578;-59
2022/06/20 01:20:47;;;;;;;14.05;6.97;;;;;;;;;;5094569;28;20046;-59
2022/06/20 01:23:41;;;;;;;12.18;7.57;;;;;;;;;;5096697;28;20059;-59
2022/06/20 01:26:26;;;;;;;13.25;7.80;;;;;;;;;;5097078;28;20382;-59
2022/06/20 01:29:07;;;;;;;12.57;8.38;;;;;;;;;;5097193;28;20027;-59
2022/06/20 01:32:13;;;;;;;16.13;9.40;;;;;;;;;;5096599;28;20020;-59
2022/06/20 01:34:45;;;;;;;13.77;8.02;;;;;;;;;;5054670;28;20033;-59
2022/06/20 01:46:17;;;;;;;9.57;7.03;;;;;;;;;;5092935;28;20028;-59
2022/06/20 01:51:48;;;;;;;8.95;7.03;;;;;;;;;;5097011;28;20085;-59
2022/06/20 01:54:25;;;;;;;8.77;7.15;;;;;;;;;;5096887;28;20054;-59
2022/06/20 01:57:11;;;;;;;14.02;7.40;;;;;;;;;;5097219;28;20512;-59
2022/06/20 01:59:54;;;;;;;13.55;7.40;;;;;;;;;;5097072;28;20370;-59
2022/06/20 02:02:38;;;;;;;7.95;7.15;;;;;;;;;;5079709;28;20339;-59
2022/06/20 02:05:45;;;;;;;9.60;8.30;;;;;;;;;;5078453;28;20032;-59
2022/06/20 02:08:35;;;;;;;9.27;7.40;;;;;;;;;;5037312;28;20562;-59
2022/06/20 02:14:15;;;;;;;11.38;8.13;;;;;;;;;;5092239;28;20108;-59
2022/06/20 02:16:56;;;;;;;8.40;7.47;;;;;;;;;;5093241;28;20082;-58
2022/06/20 02:19:29;;;;;;;10.45;7.75;;;;;;;;;;5098144;28;20055;-59
2022/06/20 02:25:09;;;;;;;15.10;8.43;;;;;;;;;;5096755;28;20093;-58
2022/06/20 02:28:05;;;;;;;10.32;7.85;;;;;;;;;;5096631;28;20034;-59
2022/06/20 02:31:03;;;;;;;14.63;8.93;;;;;;;;;;5096660;28;20023;-59
2022/06/20 02:33:50;;;;;;;13.35;7.68;;;;;;;;;;5093434;28;20089;-59
2022/06/20 02:36:16;;;;;;;10.70;7.93;;;;;;;;;;5096754;28;20055;-58
2022/06/20 02:38:55;;;;;;;10.85;8.23;;;;;;;;;;5096432;28;20418;-58
2022/06/20 02:41:26;;;;;;;12.45;8.18;;;;;;;;;;5096542;28;20465;-59
2022/06/20 02:44:10;;;;;;;10.98;8.68;;;;;;;;;;5053922;28;20378;-59
2022/06/20 02:47:19;;;;;;;12.25;8.95;;;;;;;;;;5053445;28;20025;-58
2022/06/20 02:49:52;;;;;;;22.48;10.48;;;;;;;;;;4994364;28;20030;-59
2022/06/20 02:52:45;;;;;;;13.55;8.95;;;;;;;;;;4991162;28;20045;-58
2022/06/20 02:55:39;;;;;;;12.63;7.60;;;;;;;;;;5037153;28;20075;-58
2022/06/20 02:58:19;;;;;;;9.15;6.65;;;;;;;;;;5053835;28;20068;-58
2022/06/20 03:01:19;;;;;;;12.82;7.28;;;;;;;;;;5054214;28;20152;-58
2022/06/20 03:03:58;;;;;;;8.80;6.43;;;;;;;;;;5053944;28;20030;-58
2022/06/20 03:06:46;;;;;;;13.02;7.60;;;;;;;;;;5054205;28;20059;-58
2022/06/20 03:09:24;;;;;;;12.05;7.07;;;;;;;;;;5053309;28;20048;-58
2022/06/20 03:12:16;;;;;;;8.80;7.45;;;;;;;;;;5054037;28;20040;-58
2022/06/20 03:17:49;;;;;;;13.32;7.13;;;;;;;;;;5075416;28;20078;-58
2022/06/20 03:20:37;;;;;;;8.20;6.80;;;;;;;;;;5076538;28;20046;-58
2022/06/20 03:23:16;;;;;;;8.68;6.90;;;;;;;;;;5075449;28;20028;-58
2022/06/20 03:26:04;;;;;;;12.02;7.40;;;;;;;;;;5076224;28;20040;-58
2022/06/20 03:31:46;;;;;;;12.93;8.20;;;;;;;;;;5064568;28;20370;-58
2022/06/20 03:37:32;;;;;;;11.52;6.95;;;;;;;;;;5068475;28;20032;-58
2022/06/20 03:40:07;;;;;;;11.13;8.18;;;;;;;;;;5073684;28;20171;-58
2022/06/20 03:43:30;;;;;;;9.23;8.13;;;;;;;;;;5074045;28;20021;-58
2022/06/20 03:46:20;;;;;;;22.55;8.38;;;;;;;;;;5035186;28;20502;-58
2022/06/20 03:49:02;;;;;;;13.68;8.63;;;;;;;;;;5072393;28;20115;-58
2022/06/20 03:54:57;;;;;;;15.05;8.75;;;;;;;;;;5081009;28;20289;-58
2022/06/20 03:57:47;;;;;;;14.75;9.15;;;;;;;;;;5093294;28;20044;-58
2022/06/20 04:00:17;;;;;;;16.20;8.90;;;;;;;;;;5075462;28;20074;-58
2022/06/20 04:02:58;;;;;;;9.38;8.45;;;;;;;;;;5094407;28;20107;-59
2022/06/20 04:06:09;;;;;;;14.57;8.77;;;;;;;;;;5094748;28;20489;-59
2022/06/20 04:12:05;;;;;;;12.40;8.55;;;;;;;;;;5094387;28;20024;-59
2022/06/20 04:24:04;;;;;;;11.32;8.18;;;;;;;;;;5095010;28;20032;-59
2022/06/20 04:27:10;;;;;;;11.65;9.38;;;;;;;;;;5094613;28;20032;-59
2022/06/20 04:30:01;;;;;;;9.45;8.40;;;;;;;;;;5097715;28;20127;-59
2022/06/20 04:39:09;;;;;;;14.27;8.82;;;;;;;;;;5098261;28;20093;-59
2022/06/20 04:42:06;;;;;;;;;;;;;;;;;;;;;
2022/06/20 04:45:04;;;;;;;16.67;9.45;;;;;;;;;;5098683;28;20425;-59
2022/06/20 04:47:40;;;;;;;11.48;8.07;;;;;;;;;;5099099;28;20028;-59
2022/06/20 04:50:17;;;;;;;10.75;8.20;;;;;;;;;;5098650;28;20055;-59
2022/06/20 04:52:47;;;;;;;13.98;8.93;;;;;;;;;;5098984;28;20028;-58
2022/06/20 04:55:36;;;;;;;10.75;9.23;;;;;;;;;;5096043;28;20052;-59
2022/06/20 05:01:48;;;;;;;15.48;8.63;;;;;;;;;;5083304;28;20032;-59
2022/06/20 05:04:35;;;;;;;9.80;6.60;;;;;;;;;;5097062;28;20115;-59
2022/06/20 05:07:10;;;;;;;12.32;8.88;;;;;;;;;;5097962;28;20051;-59
2022/06/20 05:13:06;;;;;;;13.05;8.85;;;;;;;;;;5089526;28;20036;-58
2022/06/20 05:18:44;;;;;;;10.45;7.53;;;;;;;;;;5097657;28;20378;-59
2022/06/20 05:21:27;;;;;;;14.77;9.50;;;;;;;;;;5096729;28;20351;-58
2022/06/20 05:24:05;;;;;;;8.75;7.80;;;;;;;;;;5094152;28;20111;-59
2022/06/20 05:26:46;;;;;;;10.35;7.28;;;;;;;;;;5095844;28;20064;-59
2022/06/20 05:30:07;;;;;;;;;;;;;;;;;;;;;
2022/06/20 05:33:05;;;;;;;12.38;8.98;;;;;;;;;;5054179;28;20418;-59
2022/06/20 05:35:55;;;;;;;;;;;;;;;;;;;;;
2022/06/20 05:38:52;;;;;;;12.35;10.40;;;;;;;;;;5022642;28;20044;-59
2022/06/20 05:41:51;;;;;;;10.88;9.27;;;;;;;;;;5076952;28;20036;-58
2022/06/20 05:47:56;;;;;;;12.80;9.07;;;;;;;;;;5072778;28;20063;-58
2022/06/20 05:53:24;;;;;;;13.70;7.70;;;;;;;;;;5085319;28;19904;-59
2022/06/20 05:59:02;;;;;;;12.38;9.63;;;;;;;;;;5076220;28;20044;-58
2022/06/20 06:01:54;;;;;;;12.82;9.75;;;;;;;;;;5076794;28;20048;-59
2022/06/20 06:08:17;;;;;;;13.95;9.82;;;;;;;;;;5055805;28;20119;-59
2022/06/20 06:11:14;;;;;;;14.52;7.82;;;;;;;;;;5076140;28;20052;-59
2022/06/20 06:14:01;;;;;;;9.32;8.02;;;;;;;;;;5075850;28;20374;-59
2022/06/20 06:19:53;;;;;;;10.75;8.88;;;;;;;;;;5075757;28;20039;-59
2022/06/20 06:22:35;;;;;;;13.70;9.27;;;;;;;;;;5075710;28;20109;-59
2022/06/20 06:31:22;;;;;;;14.48;8.38;;;;;;;;;;5089288;28;20055;-58
2022/06/20 06:37:18;;;;;;;12.23;9.82;;;;;;;;;;5064718;28;20086;-58
2022/06/20 06:40:13;;;;;;;10.70;9.07;;;;;;;;;;5075993;28;20075;-59
2022/06/20 06:43:00;;;;;;;12.60;8.65;;;;;;;;;;5073404;28;20509;-59
2022/06/20 06:45:48;;;;;;;9.38;8.43;;;;;;;;;;5086743;28;20032;-59
2022/06/20 06:48:25;;;;;;;18.20;10.13;;;;;;;;;;5075759;28;20108;-59
2022/06/20 06:51:02;;;;;;;12.77;9.25;;;;;;;;;;5075085;28;20546;-59
2022/06/20 06:53:52;;;;;;;13.15;8.77;;;;;;;;;;5073837;28;20047;-59
2022/06/20 07:03:07;;;;;;;19.73;8.30;;;;;;;;;;5012730;28;20093;-59
2022/06/20 07:05:58;;;;;;;10.02;8.50;;;;;;;;;;5018069;28;20051;-59
2022/06/20 07:11:58;;;;;;;12.75;9.32;;;;;;;;;;5094793;28;20114;-59
2022/06/20 07:14:51;;;;;;;11.25;8.13;;;;;;;;;;5077418;28;20040;-59
2022/06/20 07:17:35;;;;;;;12.13;8.98;;;;;;;;;;5094302;28;20032;-59
2022/06/20 07:20:14;;;;;;;11.27;7.78;;;;;;;;;;5098244;28;20085;-59
2022/06/20 07:23:23;;;;;;;18.60;13.80;;;;;;;;;;5094957;28;20103;-59
2022/06/20 07:29:08;;;;;;;23.40;17.25;;;;;;;;;;5094414;28;20073;-58
2022/06/20 07:31:54;;;;;;;14.55;9.25;;;;;;;;;;5051600;28;20482;-59
2022/06/20 07:34:36;;;;;;;10.63;8.88;;;;;;;;;;5051226;28;20035;-59
2022/06/20 07:37:22;;;;;;;14.50;7.65;;;;;;;;;;5051956;28;20120;-59
2022/06/20 07:40:01;;;;;;;14.00;8.98;;;;;;;;;;5035555;28;20432;-59
2022/06/20 07:42:57;;;;;;;12.60;8.20;;;;;;;;;;5052485;28;20045;-59
2022/06/20 07:45:56;;;;;;;9.98;7.38;;;;;;;;;;5021845;28;20033;-59
2022/06/20 07:55:04;;;;;;;8.05;7.25;;;;;;;;;;5018220;28;20088;-58
2022/06/20 08:01:09;;;;;;;9.18;7.05;;;;;;;;;;5038546;28;20041;-59
2022/06/20 08:03:51;;;;;;;11.23;8.27;;;;;;;;;;5052266;28;20063;-59
2022/06/20 08:09:47;;;;;;;9.15;5.93;;;;;;;;;;5065365;28;20070;-59
2022/06/20 08:12:26;;;;;;;6.60;5.93;;;;;;;;;;5094143;28;20020;-59
2022/06/20 08:15:20;;;;;;;11.57;6.70;;;;;;;;;;5093646;28;20030;-59
2022/06/20 08:18:05;;;;;;;9.18;7.10;;;;;;;;;;5093815;28;20028;-59
2022/06/20 08:20:41;;;;;;;10.38;6.47;;;;;;;;;;5093948;28;20110;-59
2022/06/20 08:26:04;;;;;;;10.18;6.28;;;;;;;;;;5094152;28;20028;-59
2022/06/20 08:35:25;;;;;;;9.68;6.80;;;;;;;;;;5083809;28;20035;-59
2022/06/20 08:38:15;;;;;;;11.10;6.93;;;;;;;;;;5094935;28;20028;-59
2022/06/20 08:41:05;;;;;;;8.43;7.32;;;;;;;;;;5093875;28;20051;-59
2022/06/20 08:44:02;;;;;;;9.82;5.38;;;;;;;;;;5094732;28;20032;-59
2022/06/20 08:47:01;;;;;;;10.05;6.63;;;;;;;;;;5093684;28;20043;-59
2022/06/20 08:49:46;;;;;;;9.85;5.15;;;;;;;;;;5076691;28;20028;-59
2022/06/20 08:56:03;;;;;;;;;;;;;;;;;;;;;
2022/06/20 08:59:14;;;;;;;13.10;6.03;;;;;;;;;;5030902;28;20410;-59
2022/06/20 09:01:58;;;;;;;6.03;5.05;;;;;;;;;;4958210;28;20043;-58
2022/06/20 09:07:36;;;;;;;8.55;5.57;;;;;;;;;;5031486;28;20039;-59
2022/06/20 09:13:38;;;;;;;10.63;5.32;;;;;;;;;;5017246;28;20483;-59
2022/06/20 09:16:23;;;;;;;10.25;5.60;;;;;;;;;;5034414;28;20061;-59
2022/06/20 09:19:08;;;;;;;8.70;5.20;;;;;;;;;;5020677;28;20061;-59
2022/06/20 09:24:57;;;;;;;7.47;5.55;;;;;;;;;;5054978;28;20032;-59
2022/06/20 09:27:50;;;;;;;8.50;5.00;;;;;;;;;;5054875;28;20028;-59
2022/06/20 09:30:26;;;;;;;6.68;5.45;;;;;;;;;;5051458;28;20399;-59
2022/06/20 09:33:22;;;;;;;12.23;5.63;;;;;;;;;;5054307;28;20032;-59
2022/06/20 09:36:09;;;;;;;6.53;5.50;;;;;;;;;;5054286;28;20493;-59
2022/06/20 09:39:13;;;;;;;;;;;;;;;;;;;;;
2022/06/20 09:41:56;;;;;;;9.02;5.13;;;;;;;;;;5049858;28;20039;-59
2022/06/20 09:44:42;;;;;;;10.40;6.35;;;;;;;;;;5037134;28;20585;-59
2022/06/20 09:47:33;;;;;;;8.35;5.63;;;;;;;;;;5054248;28;20073;-59
2022/06/20 09:50:12;;;;;;;5.78;4.90;;;;;;;;;;5053235;28;20029;-59
2022/06/20 09:53:16;;;;;;;9.38;6.13;;;;;;;;;;5058208;28;20415;-59
2022/06/20 09:56:19;;;;;;;7.05;5.75;;;;;;;;;;5095155;28;20048;-59
2022/06/20 09:59:10;;;;;;;;;;;;;;;;;;;;;
2022/06/20 10:01:49;;;;;;;7.47;5.63;;;;;;;;;;5083573;28;20028;-59
2022/06/20 10:04:45;;;;;;;8.20;5.60;;;;;;;;;;5077891;28;20028;-59
2022/06/20 10:07:33;;;;;;;7.05;5.78;;;;;;;;;;5078295;28;20529;-59
2022/06/20 10:10:23;;;;;;;6.53;5.00;;;;;;;;;;5088669;28;20043;-59
2022/06/20 10:13:14;;;;;;;7.82;6.05;;;;;;;;;;5093575;28;20469;-59
2022/06/20 10:15:49;;;;;;;8.13;5.72;;;;;;;;;;5096613;28;20028;-59
2022/06/20 10:18:46;;;;;;;8.68;5.35;;;;;;;;;;5078252;28;20404;-59
2022/06/20 10:21:36;;;;;;;12.43;5.97;;;;;;;;;;5073429;28;20500;-59
2022/06/20 10:24:27;;;;;;;6.40;5.80;;;;;;;;;;5053071;28;20076;-59
2022/06/20 10:27:06;;;;;;;;;;;;;;;;;;;;;
2022/06/20 10:29:41;;;;;;;7.90;5.53;;;;;;;;;;5048575;28;19909;-59
2022/06/20 10:38:33;;;;;;;6.03;4.80;;;;;;;;;;5046222;28;20382;-59
2022/06/20 10:41:02;;;;;;;7.40;5.40;;;;;;;;;;5052958;28;20021;-59
2022/06/20 10:47:08;;;;;;;5.97;3.97;;;;;;;;;;5052356;28;20033;-59
2022/06/20 10:49:53;;;;;;;7.15;4.95;;;;;;;;;;5034112;28;20033;-59
2022/06/20 10:55:45;;;;;;;6.43;5.20;;;;;;;;;;5075257;28;20095;-58
2022/06/20 10:58:39;;;;;;;7.93;4.30;;;;;;;;;;5096228;28;20045;-59
2022/06/20 11:01:39;;;;;;;3.92;3.38;;;;;;;;;;5090571;28;20119;-59
2022/06/20 11:04:17;;;;;;;5.07;3.53;;;;;;;;;;5069291;28;20523;-60
2022/06/20 11:07:25;;;;;;;5.53;3.80;;;;;;;;;;5095149;28;20028;-59
2022/06/20 11:10:12;;;;;;;6.40;3.85;;;;;;;;;;5034373;28;20040;-59
2022/06/20 11:12:53;;;;;;;7.13;3.40;;;;;;;;;;5094320;28;20071;-60
2022/06/20 11:18:37;;;;;;;6.28;3.08;;;;;;;;;;5065001;28;20046;-59
2022/06/20 11:24:41;;;;;;;7.13;2.60;;;;;;;;;;5094069;28;20105;-59
2022/06/20 11:27:43;;;;;;;6.38;3.28;;;;;;;;;;5073351;28;20089;-59
2022/06/20 11:30:27;;;;;;;3.53;2.70;;;;;;;;;;5031886;28;20029;-59
2022/06/20 11:34:00;;;;;;;6.47;2.95;;;;;;;;;;5041193;28;20025;-59
2022/06/20 11:42:45;;;;;;;7.10;2.92;;;;;;;;;;5093786;28;20432;-59
2022/06/20 11:45:21;;;;;;;4.97;2.97;;;;;;;;;;5070493;28;20036;-59
2022/06/20 11:51:20;;;;;;;6.60;4.95;;;;;;;;;;5085747;28;20031;-59
2022/06/20 11:53:52;;;;;;;4.90;4.40;;;;;;;;;;5076560;28;20115;-59
2022/06/20 11:59:44;;;;;;;6.90;5.00;;;;;;;;;;5094133;28;20040;-59
2022/06/20 12:02:35;;;;;;;8.32;4.78;;;;;;;;;;5093467;28;20086;-59
2022/06/20 12:05:13;;;;;;;7.18;4.35;;;;;;;;;;5094018;28;20016;-59
2022/06/20 12:08:12;;;;;;;9.63;4.72;;;;;;;;;;5094320;28;20020;-59
2022/06/20 12:10:52;;;;;;;6.80;4.40;;;;;;;;;;5092976;28;20024;-59
2022/06/20 12:13:52;;;;;;;4.20;2.88;;;;;;;;;;5051859;28;20032;-59
2022/06/20 12:16:53;;;;;;;5.68;4.28;;;;;;;;;;5034884;28;20033;-59
2022/06/20 12:25:34;;;;;;;8.55;3.05;;;;;;;;;;5051814;28;20117;-59
2022/06/20 12:28:03;;;;;;;6.50;3.72;;;;;;;;;;5050544;28;20033;-58
2022/06/20 12:30:38;;;;;;;5.10;2.08;;;;;;;;;;5050877;28;20033;-59
2022/06/20 12:33:09;;;;;;;3.33;2.35;;;;;;;;;;5051787;28;20025;-58
2022/06/20 12:35:55;;;;;;;7.03;2.33;;;;;;;;;;5051541;28;20167;-59
2022/06/20 12:39:15;;;;;;;;;;;;;;;;;;;;;
2022/06/20 12:41:43;;;;;;;3.95;2.22;;;;;;;;;;4959878;28;20038;-60
2022/06/20 12:44:30;;;;;;;5.93;3.10;;;;;;;;;;4998968;28;20431;-60
2022/06/20 12:47:40;;;;;;;6.90;3.75;;;;;;;;;;5011312;28;20125;-58
2022/06/20 12:50:24;;;;;;;6.43;3.88;;;;;;;;;;5009691;28;20606;-58
2022/06/20 12:53:17;;;;;;;7.40;4.30;;;;;;;;;;5052151;28;20039;-58
2022/06/20 12:55:55;;;;;;;4.20;3.20;;;;;;;;;;5070275;28;20373;-58
2022/06/20 12:58:47;;;;;;;6.75;3.17;;;;;;;;;;5097488;28;20032;-58
2022/06/20 13:01:43;;;;;;;9.27;4.68;;;;;;;;;;5054723;28;20531;-58
2022/06/20 13:04:26;;;;;;;6.50;4.43;;;;;;;;;;5054784;28;20407;-59
2022/06/20 13:07:07;;;;;;;5.57;4.03;;;;;;;;;;5054729;28;20032;-59
2022/06/20 13:13:02;;;;;;;6.95;4.50;;;;;;;;;;5049774;28;20029;-58
2022/06/20 13:16:04;;;;;;;6.05;4.78;;;;;;;;;;5037541;28;20044;-58
2022/06/20 13:19:06;;;;;;;5.57;4.88;;;;;;;;;;5054503;28;20029;-58
2022/06/20 13:21:54;;;;;;;5.25;4.38;;;;;;;;;;4995330;28;20085;-59
2022/06/20 13:24:51;;;;;;;7.97;4.60;;;;;;;;;;5050898;28;20087;-58
2022/06/20 13:30:50;;;;;;;10.13;6.28;;;;;;;;;;5052252;28;20477;-59
2022/06/20 13:33:37;;;;;;;7.80;4.32;;;;;;;;;;5094737;28;20036;-58
2022/06/20 13:36:21;;;;;;;5.05;4.53;;;;;;;;;;5097981;28;20028;-59
2022/06/20 13:42:03;;;;;;;7.97;4.88;;;;;;;;;;5087743;28;20042;-59
2022/06/20 13:47:59;;;;;;;12.20;5.13;;;;;;;;;;5096461;28;20072;-59
2022/06/20 13:50:44;;;;;;;7.03;5.22;;;;;;;;;;5096621;28;20013;-59
2022/06/20 13:53:34;;;;;;;6.53;4.30;;;;;;;;;;5096510;28;20020;-58
2022/06/20 13:59:39;;;;;;;5.97;4.38;;;;;;;;;;5075834;28;20623;-58
2022/06/20 14:05:38;;;;;;;9.00;4.68;;;;;;;;;;5075843;28;20066;-58
2022/06/20 14:08:45;;;;;;;6.72;4.30;;;;;;;;;;5070349;28;20043;-58
2022/06/20 14:11:43;;;;;;;;;;;;;;;;;;;;;
2022/06/20 14:17:33;;;;;;;7.05;3.65;;;;;;;;;;5075331;28;20044;-58
2022/06/20 14:20:18;;;;;;;8.68;5.20;;;;;;;;;;5074892;28;20024;-58
2022/06/20 14:23:16;;;;;;;;;;;;;;;;;;;;;
2022/06/20 14:26:12;;;;;;;4.65;4.10;;;;;;;;;;5075257;28;20033;-58
2022/06/20 14:29:02;;;;;;;4.70;3.97;;;;;;;;;;5071361;28;20036;-58
2022/06/20 14:31:32;;;;;;;;;;;;;;;;;;5075635;28;20105;-58
2022/06/20 14:34:12;;;;;;;5.85;4.45;;;;;;;;;;5073961;28;19973;-58
2022/06/20 14:37:10;;;;;;;7.45;4.30;;;;;;;;;;5073402;28;20027;-58
2022/06/20 14:40:18;;;;;;;4.72;3.60;;;;;;;;;;5075191;28;20020;-59
2022/06/20 14:43:11;;;;;;;5.00;4.10;;;;;;;;;;5075384;28;20098;-58
2022/06/20 14:46:02;;;;;;;4.68;3.55;;;;;;;;;;5075191;28;20024;-58
2022/06/20 14:48:40;;;;;;;7.95;3.67;;;;;;;;;;5073321;28;20040;-58
2022/06/20 14:51:39;;;;;;;4.15;3.75;;;;;;;;;;5074463;28;20027;-58
2022/06/20 14:57:59;;;;;;;6.50;4.00;;;;;;;;;;5049685;28;20136;-58
2022/06/20 15:01:06;;;;;;;;;;;;;;;;;;;;;
2022/06/20 15:04:01;;;;;;;9.00;3.63;;;;;;;;;;5038597;28;20029;-58
2022/06/20 15:06:50;;;;;;;5.78;3.92;;;;;;;;;;5038275;28;20412;-58
2022/06/20 15:09:50;;;;;;;4.30;3.20;;;;;;;;;;5065577;28;20040;-58
2022/06/20 15:12:34;;;;;;;5.90;3.65;;;;;;;;;;5074061;28;20028;-58
2022/06/20 15:15:31;;;;;;;8.13;4.03;;;;;;;;;;5075425;28;20097;-58
2022/06/20 15:18:29;;;;;;;5.20;3.30;;;;;;;;;;5072412;28;20047;-58
2022/06/20 15:21:11;;;;;;;4.30;2.88;;;;;;;;;;5056803;28;20067;-58
2022/06/20 15:26:59;;;;;;;4.57;3.25;;;;;;;;;;5074501;28;20063;-58
2022/06/20 15:30:03;;;;;;;;;;;;;;;;;;;;;
2022/06/20 15:35:51;;;;;;;6.82;4.07;;;;;;;;;;5074661;28;20122;-58
2022/06/20 15:38:33;;;;;;;9.43;4.05;;;;;;;;;;5056291;28;20106;-58
2022/06/20 15:41:17;;;;;;;3.97;3.42;;;;;;;;;;5056016;28;20107;-58
2022/06/20 15:44:22;;;;;;;5.28;3.22;;;;;;;;;;5057261;28;20024;-58
2022/06/20 15:47:14;;;;;;;4.70;3.30;;;;;;;;;;5031993;28;20033;-58
2022/06/20 15:49:48;;;;;;;8.80;3.72;;;;;;;;;;5032212;28;20472;-58
2022/06/20 15:52:37;;;;;;;4.85;3.13;;;;;;;;;;5052694;28;20481;-58
2022/06/20 15:55:33;;;;;;;5.72;3.40;;;;;;;;;;5054766;28;20386;-58
2022/06/20 15:58:20;;;;;;;4.55;3.50;;;;;;;;;;5074702;28;20485;-58
2022/06/20 16:01:18;;;;;;;5.43;3.45;;;;;;;;;;5093473;28;20135;-58
2022/06/20 16:03:53;;;;;;;6.95;3.78;;;;;;;;;;5074725;28;20377;-58
2022/06/20 16:10:02;;;;;;;3.78;3.38;;;;;;;;;;5093705;28;20023;-58
2022/06/20 16:12:52;;;;;;;4.85;4.00;;;;;;;;;;5074110;28;20035;-58
2022/06/20 16:15:43;;;;;;;6.95;4.43;;;;;;;;;;5093756;28;20028;-58
2022/06/20 16:18:45;;;;;;;;;;;;;;;;;;;;;
2022/06/20 16:21:17;;;;;;;4.40;3.90;;;;;;;;;;5094381;28;20038;-58
2022/06/20 16:23:55;;;;;;;6.07;4.22;;;;;;;;;;5075378;28;20024;-58
2022/06/20 16:26:30;;;;;;;4.82;3.80;;;;;;;;;;5089656;28;20032;-58
2022/06/20 16:29:09;;;;;;;4.78;3.78;;;;;;;;;;5097709;28;20048;-58
2022/06/20 16:31:59;;;;;;;4.45;3.92;;;;;;;;;;5098186;28;20020;-58
2022/06/20 16:35:12;;;;;;;;;;;;;;;;;;;;;
2022/06/20 16:37:46;;;;;;;16.38;9.48;;;;;;;;;;5094088;28;20073;-58
2022/06/20 16:41:09;;;;;;;;;;;;;;;;;;;;;
2022/06/20 16:43:40;;;;;;;6.90;4.85;;;;;;;;;;5021484;28;20037;-58
2022/06/20 16:49:25;;;;;;;5.72;4.78;;;;;;;;;;5035509;28;20502;-58
2022/06/20 16:55:31;;;;;;;6.95;5.45;;;;;;;;;;5027385;28;20364;-58
2022/06/20 17:01:16;;;;;;;;;;;;;;;;;;;;;
2022/06/20 17:04:08;;;;;;;6.15;4.35;;;;;;;;;;5076347;28;20379;-59
2022/06/20 17:06:54;;;;;;;3.63;3.22;;;;;;;;;;5076692;28;20033;-59
2022/06/20 17:09:38;;;;;;;6.85;4.55;;;;;;;;;;5077322;28;20028;-59
2022/06/20 17:12:28;;;;;;;5.05;3.65;;;;;;;;;;5077199;28;20017;-59
2022/06/20 17:15:31;;;;;;;5.57;4.05;;;;;;;;;;5068704;28;20486;-59
2022/06/20 17:18:09;;;;;;;6.80;5.72;;;;;;;;;;5077647;28;20025;-59
2022/06/20 17:21:10;;;;;;;9.80;4.18;;;;;;;;;;5076857;28;20401;-58
2022/06/20 17:23:57;;;;;;;4.03;2.90;;;;;;;;;;5076368;28;20027;-59
2022/06/20 17:26:53;;;;;;;9.40;2.92;;;;;;;;;;5075211;28;20033;-58
2022/06/20 17:30:29;;;;;;;5.78;4.88;;;;;;;;;;5076791;28;20028;-58
2022/06/20 17:32:46;;;;;;;3.70;3.00;;;;;;;;;;5072275;28;20040;-59
2022/06/20 17:35:39;;;;;;;;;;;;;;;;;;;;;
2022/06/20 17:38:44;;;;;;;4.47;2.75;;;;;;;;;;5076218;28;20111;-59
2022/06/20 17:41:21;;;;;;;4.70;3.42;;;;;;;;;;5076545;28;20039;-59
2022/06/20 17:44:09;;;;;;;3.92;2.88;;;;;;;;;;5076306;28;20029;-59
2022/06/20 17:47:01;;;;;;;4.38;2.85;;;;;;;;;;5076516;28;20070;-58
2022/06/20 17:52:52;;;;;;;3.88;2.60;;;;;;;;;;5076573;28;20020;-59
2022/06/20 17:55:56;;;;;;;3.90;2.75;;;;;;;;;;5076025;28;20025;-59
2022/06/20 17:58:44;;;;;;;3.50;2.65;;;;;;;;;;5095545;28;20055;-59
2022/06/20 18:01:46;;;;;;;3.33;3.03;;;;;;;;;;5078082;28;20458;-59
2022/06/20 18:04:45;;;;;;;5.25;2.60;;;;;;;;;;5036914;28;20559;-59
2022/06/20 18:07:46;;;;;;;4.28;2.67;;;;;;;;;;5080087;28;20539;-59
2022/06/20 18:10:21;;;;;;;3.95;2.92;;;;;;;;;;5095783;28;20043;-58
2022/06/20 18:13:18;;;;;;;;;;;;;;;;;;;;;
2022/06/20 18:16:03;;;;;;;9.00;5.47;;;;;;;;;;5092075;28;20056;-59
2022/06/20 18:18:53;;;;;;;5.13;3.40;;;;;;;;;;5076402;28;20474;-58
2022/06/20 18:21:35;;;;;;;;;;;;;;;;;;;;;
2022/06/20 18:24:34;;;;;;;4.78;2.70;;;;;;;;;;5095500;28;20389;-59
2022/06/20 18:27:07;;;;;;;4.63;3.28;;;;;;;;;;5087913;28;20390;-60
2022/06/20 18:32:51;;;;;;;3.92;2.38;;;;;;;;;;5063353;28;20024;-58
2022/06/20 18:35:44;;;;;;;3.60;2.40;;;;;;;;;;5095841;28;20102;-59
2022/06/20 18:38:39;;;;;;;;;;;;;;;;;;;;;
2022/06/20 18:41:14;;;;;;;5.10;2.50;;;;;;;;;;5029578;28;20037;-59
2022/06/20 18:44:02;;;;;;;3.67;1.67;;;;;;;;;;5085292;28;20089;-59
2022/06/20 18:46:41;;;;;;;2.13;1.77;;;;;;;;;;5077342;28;20028;-59
2022/06/20 18:49:28;;;;;;;2.67;1.67;;;;;;;;;;5051084;28;20037;-59
2022/06/20 18:52:18;;;;;;;3.03;1.98;;;;;;;;;;5052827;28;20123;-59
2022/06/20 18:55:02;;;;;;;4.43;2.40;;;;;;;;;;5052743;28;20033;-59
2022/06/20 18:57:50;;;;;;;3.58;2.15;;;;;;;;;;5051534;28;20283;-59
2022/06/20 19:00:44;;;;;;;3.67;1.83;;;;;;;;;;5053055;28;20092;-58
2022/06/20 19:13:11;;;;;;;2.13;1.38;;;;;;;;;;5055053;28;20043;-58
2022/06/20 19:16:04;;;;;;;4.82;1.83;;;;;;;;;;5052561;28;20036;-58
2022/06/20 19:19:03;;;;;;;4.22;2.00;;;;;;;;;;5052795;28;20041;-58
2022/06/20 19:21:54;;;;;;;2.72;1.65;;;;;;;;;;5095503;28;20078;-58
2022/06/20 19:24:37;;;;;;;3.17;1.70;;;;;;;;;;5076034;28;20031;-58
2022/06/20 19:27:06;;;;;;;2.30;1.83;;;;;;;;;;5091679;28;20119;-58
2022/06/20 19:30:19;;;;;;;;;;;;;;;;;;;;;
2022/06/20 19:33:11;;;;;;;7.22;2.17;;;;;;;;;;5050236;28;20514;-58
2022/06/20 19:36:05;;;;;;;6.20;2.45;;;;;;;;;;5051847;28;20029;-58
2022/06/20 19:44:39;;;;;;;2.58;1.85;;;;;;;;;;5023810;28;20398;-58
2022/06/20 19:47:39;;;;;;;2.95;1.88;;;;;;;;;;5051884;28;20095;-58
2022/06/20 19:53:46;;;;;;;6.90;1.77;;;;;;;;;;5042656;28;20069;-58
2022/06/20 19:56:22;;;;;;;4.28;1.50;;;;;;;;;;5051358;28;20104;-58
2022/06/20 19:59:08;;;;;;;3.03;2.00;;;;;;;;;;5050827;28;20127;-58
2022/06/20 20:01:53;;;;;;;2.95;2.25;;;;;;;;;;5051804;28;20090;-58
2022/06/20 20:10:54;;;;;;;2.88;1.85;;;;;;;;;;5051630;28;20526;-58
2022/06/20 20:16:50;;;;;;;2.40;1.35;;;;;;;;;;5051258;28;20044;-58
2022/06/20 20:19:30;;;;;;;3.17;1.73;;;;;;;;;;5086692;28;20551;-58
2022/06/20 20:22:30;;;;;;;2.73;1.87;;;;;;;;;;5051276;28;20075;-57
2022/06/20 20:25:24;;;;;;;;;;;;;;;;;;;;;
2022/06/20 20:28:11;;;;;;;2.20;1.20;;;;;;;;;;5051208;28;20031;-58
2022/06/20 20:30:51;;;;;;;5.63;1.88;;;;;;;;;;5051286;28;20463;-58
2022/06/20 20:33:54;;;;;;;2.40;1.52;;;;;;;;;;5051866;28;20055;-58
2022/06/20 20:36:41;;;;;;;2.20;1.40;;;;;;;;;;5051645;28;20044;-58
2022/06/20 20:39:42;;;;;;;2.40;1.42;;;;;;;;;;5011380;28;20041;-58
2022/06/20 20:42:38;;;;;;;3.05;2.03;;;;;;;;;;4953099;29;20418;-58
2022/06/20 20:45:28;;;;;;;2.35;1.45;;;;;;;;;;4953539;29;20044;-58
2022/06/20 20:48:03;;;;;;;;;;;;;;;;;;4953431;29;20045;-58
2022/06/20 20:54:16;;;;;;;1.95;1.38;;;;;;;;;;4951388;28;20027;-58
2022/06/20 20:56:56;;;;;;;2.40;1.63;;;;;;;;;;4955532;28;20159;-58
2022/06/20 20:59:44;;;;;;;1.88;1.00;;;;;;;;;;5045800;28;20111;-58
2022/06/20 21:02:28;;;;;;;1.83;1.23;;;;;;;;;;5029792;28;20037;-57
2022/06/20 21:05:16;;;;;;;3.33;1.63;;;;;;;;;;5053004;28;20063;-57
2022/06/20 21:07:48;;;;;;;1.95;1.25;;;;;;;;;;5052730;28;20487;-58
2022/06/20 21:10:58;;;;;;;3.28;1.45;;;;;;;;;;5066123;28;20044;-58
2022/06/20 21:13:41;;;;;;;2.25;1.48;;;;;;;;;;5060522;28;20024;-58
2022/06/20 21:16:44;;;;;;;4.88;1.73;;;;;;;;;;5061157;28;20037;-58
2022/06/20 21:19:41;;;;;;;3.10;1.23;;;;;;;;;;5045394;28;20045;-58
2022/06/20 21:22:45;;;;;;;2.25;1.17;;;;;;;;;;5051801;28;20516;-58
2022/06/20 21:25:37;;;;;;;1.90;1.25;;;;;;;;;;5075820;28;20370;-58
2022/06/20 21:28:20;;;;;;;2.60;1.33;;;;;;;;;;5016472;28;20038;-57